createdAt,value
2023-03-16T00:00:52.710Z,99.90
2023-03-16T00:03:19.735Z,99.90
2023-03-16T00:05:47.574Z,99.90
2023-03-16T00:08:14.619Z,99.90
2023-03-16T00:10:46.737Z,99.90
2023-03-16T00:13:17.067Z,99.90
2023-03-16T00:15:51.251Z,99.90
2023-03-16T00:18:18.104Z,99.90
2023-03-16T00:20:44.808Z,99.90
2023-03-16T00:23:11.960Z,99.90
2023-03-16T00:25:38.623Z,99.90
2023-03-16T00:28:05.688Z,99.90
2023-03-16T00:30:32.774Z,99.90
2023-03-16T00:32:59.610Z,99.90
2023-03-16T00:35:26.350Z,99.90
2023-03-16T00:37:57.299Z,99.90
2023-03-16T00:40:24.358Z,99.90
2023-03-16T00:42:51.025Z,99.90
2023-03-16T00:45:17.844Z,99.90
2023-03-16T00:47:44.937Z,99.90
2023-03-16T00:50:12.189Z,99.90
2023-03-16T00:52:39.016Z,99.90
2023-03-16T00:55:05.971Z,99.90
2023-03-16T00:57:32.676Z,99.90
2023-03-16T01:00:03.034Z,99.90
2023-03-16T01:02:29.645Z,99.90
2023-03-16T01:04:56.316Z,99.90
2023-03-16T01:07:23.024Z,99.90
2023-03-16T01:09:49.769Z,99.90
2023-03-16T01:12:20.629Z,99.90
2023-03-16T01:14:47.729Z,99.90
2023-03-16T01:17:15.039Z,99.90
2023-03-16T01:19:42.035Z,99.90
2023-03-16T01:22:09.879Z,99.90
2023-03-16T01:24:37.292Z,99.90
2023-03-16T01:27:04.581Z,99.90
2023-03-16T01:29:31.935Z,99.90
2023-03-16T01:31:58.702Z,99.90
2023-03-16T01:34:25.546Z,99.90
2023-03-16T01:36:52.199Z,99.90
2023-03-16T01:39:18.935Z,99.90
2023-03-16T01:41:46.629Z,99.90
2023-03-16T01:44:22.386Z,99.90
2023-03-16T01:46:49.086Z,99.90
2023-03-16T01:49:48.259Z,99.90
2023-03-16T01:52:16.690Z,99.90
2023-03-16T01:54:48.564Z,99.90
2023-03-16T01:57:16.372Z,99.90
2023-03-16T01:59:44.783Z,99.90
2023-03-16T02:02:13.365Z,99.90
2023-03-16T02:04:40.101Z,99.90
2023-03-16T02:07:08.092Z,99.90
2023-03-16T02:09:36.467Z,99.90
2023-03-16T02:12:03.881Z,99.90
2023-03-16T02:14:30.670Z,99.90
2023-03-16T02:16:57.629Z,99.90
2023-03-16T02:19:50.521Z,99.90
2023-03-16T02:22:17.893Z,99.90
2023-03-16T02:24:45.029Z,99.90
2023-03-16T02:27:13.825Z,99.90
2023-03-16T02:29:40.731Z,99.90
2023-03-16T02:32:07.542Z,99.90
2023-03-16T02:34:35.143Z,99.90
2023-03-16T02:37:02.597Z,99.90
2023-03-16T02:39:29.375Z,99.90
2023-03-16T02:41:56.110Z,99.90
2023-03-16T02:44:28.016Z,99.90
2023-03-16T02:46:56.054Z,99.90
2023-03-16T02:49:25.847Z,99.90
2023-03-16T02:51:52.500Z,99.90
2023-03-16T02:54:19.618Z,99.90
2023-03-16T02:56:46.351Z,99.90
2023-03-16T02:59:13.454Z,99.90
2023-03-16T03:01:40.084Z,99.90
2023-03-16T03:04:06.949Z,99.90
2023-03-16T03:06:34.156Z,99.90
2023-03-16T03:09:02.083Z,99.90
2023-03-16T03:11:29.150Z,99.90
2023-03-16T03:13:55.877Z,99.90
2023-03-16T03:16:22.960Z,99.90
2023-03-16T03:18:50.112Z,99.90
2023-03-16T03:21:16.909Z,99.90
2023-03-16T03:23:46.664Z,99.90
2023-03-16T03:26:17.149Z,99.90
2023-03-16T03:28:44.730Z,99.90
2023-03-16T03:31:18.532Z,99.90
2023-03-16T03:33:45.307Z,99.90
2023-03-16T03:36:12.163Z,99.90
2023-03-16T03:38:39.204Z,99.90
2023-03-16T03:41:08.296Z,99.90
2023-03-16T03:43:35.260Z,99.90
2023-03-16T03:46:03.065Z,99.90
2023-03-16T03:48:30.163Z,99.90
2023-03-16T03:50:56.922Z,99.90
2023-03-16T03:53:23.775Z,99.90
2023-03-16T03:55:50.690Z,99.90
2023-03-16T03:58:17.918Z,99.90
2023-03-16T04:00:45.381Z,99.90
2023-03-16T04:03:12.285Z,99.90
2023-03-16T04:05:39.062Z,99.90
2023-03-16T04:08:06.706Z,99.90
2023-03-16T04:10:33.669Z,99.90
2023-03-16T04:13:00.937Z,99.90
2023-03-16T04:15:27.730Z,99.90
2023-03-16T04:17:54.480Z,99.90
2023-03-16T04:20:23.299Z,99.90
2023-03-16T04:22:50.017Z,99.90
2023-03-16T04:25:17.511Z,99.90
2023-03-16T04:27:44.505Z,99.90
2023-03-16T04:30:12.955Z,99.90
2023-03-16T04:32:40.160Z,99.90
2023-03-16T04:35:07.041Z,99.90
2023-03-16T04:37:34.627Z,99.90
2023-03-16T04:40:10.853Z,99.90
2023-03-16T04:42:37.920Z,99.90
2023-03-16T04:45:04.861Z,99.90
2023-03-16T04:47:33.930Z,99.90
2023-03-16T04:50:01.117Z,99.90
2023-03-16T04:52:28.616Z,99.90
2023-03-16T04:54:55.471Z,99.90
2023-03-16T04:57:22.597Z,99.90
2023-03-16T04:59:49.828Z,99.90
2023-03-16T05:02:17.655Z,99.90
2023-03-16T05:04:44.259Z,99.90
2023-03-16T05:07:11.567Z,99.90
2023-03-16T05:09:38.191Z,99.90
2023-03-16T05:12:04.920Z,99.90
2023-03-16T05:14:31.571Z,99.90
2023-03-16T05:16:58.382Z,99.90
2023-03-16T05:19:25.070Z,99.90
2023-03-16T05:21:51.770Z,99.90
2023-03-16T05:24:18.432Z,99.90
2023-03-16T05:26:45.573Z,99.90
2023-03-16T05:29:12.574Z,99.90
2023-03-16T05:31:39.553Z,99.90
2023-03-16T05:34:06.692Z,99.90
2023-03-16T05:36:35.894Z,99.90
2023-03-16T05:39:02.806Z,99.90
2023-03-16T05:41:30.096Z,99.90
2023-03-16T05:43:56.815Z,99.90
2023-03-16T05:46:23.673Z,99.90
2023-03-16T05:48:50.443Z,99.90
2023-03-16T05:51:17.051Z,99.90
2023-03-16T05:53:46.631Z,99.90
2023-03-16T05:56:13.283Z,99.90
2023-03-16T05:58:40.013Z,99.90
2023-03-16T06:01:08.173Z,99.90
2023-03-16T06:03:34.988Z,99.90
2023-03-16T06:06:02.208Z,99.90
2023-03-16T06:08:28.986Z,99.90
2023-03-16T06:10:55.625Z,99.90
2023-03-16T06:13:25.464Z,99.90
2023-03-16T06:15:52.165Z,99.90
2023-03-16T06:18:18.865Z,99.90
2023-03-16T06:20:47.246Z,99.90
2023-03-16T06:23:14.050Z,99.90
2023-03-16T06:25:40.998Z,96.50
2023-03-16T06:28:07.998Z,93.20
2023-03-16T06:30:34.656Z,91.90
2023-03-16T06:33:02.185Z,92.70
2023-03-16T06:35:29.095Z,92.00
2023-03-16T06:37:58.772Z,90.50
2023-03-16T06:40:25.923Z,86.50
2023-03-16T06:42:53.609Z,83.20
2023-03-16T06:45:22.217Z,80.40
2023-03-16T06:47:49.032Z,78.30
2023-03-16T06:50:15.816Z,78.00
2023-03-16T06:52:42.536Z,79.10
2023-03-16T06:55:09.664Z,77.60
2023-03-16T06:57:36.405Z,77.50
2023-03-16T07:00:04.534Z,73.70
2023-03-16T07:02:32.255Z,71.60
2023-03-16T07:04:58.906Z,71.40
2023-03-16T07:07:27.234Z,71.80
2023-03-16T07:09:53.942Z,72.30
2023-03-16T07:12:20.896Z,72.10
2023-03-16T07:14:51.259Z,72.10
2023-03-16T07:17:19.150Z,71.20
2023-03-16T07:19:45.856Z,70.00
2023-03-16T07:22:12.697Z,69.60
2023-03-16T07:24:39.482Z,70.40
2023-03-16T07:27:06.213Z,69.60
2023-03-16T07:29:34.236Z,68.10
2023-03-16T07:32:01.016Z,67.50
2023-03-16T07:34:27.705Z,65.50
2023-03-16T07:36:54.388Z,63.70
2023-03-16T07:39:24.086Z,63.50
2023-03-16T07:41:51.441Z,64.50
2023-03-16T07:44:18.151Z,65.70
2023-03-16T07:46:44.873Z,67.60
2023-03-16T07:49:12.278Z,67.80
2023-03-16T07:51:39.027Z,67.10
2023-03-16T07:54:05.914Z,67.50
2023-03-16T07:56:47.511Z,66.40
2023-03-16T07:59:15.323Z,65.40
2023-03-16T08:01:41.975Z,64.30
2023-03-16T08:04:09.970Z,63.60
2023-03-16T08:06:36.536Z,64.80
2023-03-16T08:09:03.180Z,63.00
2023-03-16T08:11:29.791Z,62.30
2023-03-16T08:13:57.530Z,63.40
2023-03-16T08:16:24.258Z,61.70
2023-03-16T08:18:51.919Z,61.20
2023-03-16T08:21:19.157Z,60.30
2023-03-16T08:23:49.304Z,59.20
2023-03-16T08:26:19.906Z,61.10
2023-03-16T08:28:47.634Z,62.80
2023-03-16T08:31:15.226Z,62.70
2023-03-16T08:33:42.791Z,65.30
2023-03-16T08:36:11.761Z,63.40
2023-03-16T08:38:40.083Z,61.50
2023-03-16T08:41:06.958Z,59.60
2023-03-16T08:43:33.731Z,59.00
2023-03-16T08:46:01.796Z,57.70
2023-03-16T08:48:29.930Z,60.00
2023-03-16T08:50:56.553Z,57.90
2023-03-16T08:53:23.222Z,55.80
2023-03-16T08:55:49.987Z,56.90
2023-03-16T08:58:16.640Z,58.50
2023-03-16T09:00:46.457Z,59.60
2023-03-16T09:03:13.723Z,58.80
2023-03-16T09:05:40.443Z,60.50
2023-03-16T09:08:07.190Z,59.80
2023-03-16T09:10:33.848Z,60.00
2023-03-16T09:13:00.900Z,59.40
2023-03-16T09:15:27.576Z,60.90
2023-03-16T09:17:54.609Z,58.10
2023-03-16T09:20:25.914Z,58.30
2023-03-16T09:22:54.594Z,57.80
2023-03-16T09:25:21.325Z,56.40
2023-03-16T09:27:48.042Z,56.40
2023-03-16T09:30:16.698Z,58.60
2023-03-16T09:32:43.734Z,60.50
2023-03-16T09:35:10.575Z,60.60
2023-03-16T09:37:44.915Z,58.80
2023-03-16T09:40:24.795Z,61.10
2023-03-16T09:43:00.611Z,62.30
2023-03-16T09:45:38.666Z,64.20
2023-03-16T09:48:05.816Z,61.70
2023-03-16T09:50:48.448Z,60.10
2023-03-16T09:53:24.860Z,60.20
2023-03-16T09:55:58.272Z,59.60
2023-03-16T09:58:24.968Z,60.50
2023-03-16T10:00:58.821Z,63.50
2023-03-16T10:03:25.484Z,64.20
2023-03-16T10:05:57.161Z,65.70
2023-03-16T10:08:25.195Z,64.80
2023-03-16T10:11:10.851Z,64.70
2023-03-16T10:13:40.552Z,66.10
2023-03-16T10:16:17.411Z,64.10
2023-03-16T10:18:46.150Z,63.60
2023-03-16T10:21:14.738Z,68.10
2023-03-16T10:23:42.012Z,67.90
2023-03-16T10:26:31.674Z,66.20
2023-03-16T10:29:01.133Z,69.30
2023-03-16T10:31:30.372Z,69.90
2023-03-16T10:34:02.601Z,71.00
2023-03-16T10:36:34.597Z,72.10
2023-03-16T10:39:05.698Z,73.70
2023-03-16T10:41:37.353Z,73.00
2023-03-16T10:44:13.513Z,72.20
2023-03-16T10:46:50.816Z,72.40
2023-03-16T10:49:20.142Z,71.20
2023-03-16T10:51:46.934Z,69.80
2023-03-16T10:54:21.789Z,69.30
2023-03-16T10:56:50.695Z,67.90
2023-03-16T10:59:28.088Z,68.50
2023-03-16T11:01:55.095Z,65.30
2023-03-16T11:04:21.766Z,67.50
2023-03-16T11:06:51.456Z,67.30
2023-03-16T11:09:23.810Z,68.40
2023-03-16T11:11:50.613Z,69.50
2023-03-16T11:14:20.411Z,70.20
2023-03-16T11:16:53.244Z,69.80
2023-03-16T11:20:00.382Z,68.80
2023-03-16T11:22:27.554Z,69.90
2023-03-16T11:25:04.269Z,68.50
2023-03-16T11:27:35.100Z,68.80
2023-03-16T11:30:23.896Z,68.70
2023-03-16T11:32:53.421Z,68.30
2023-03-16T11:35:56.356Z,68.40
2023-03-16T11:38:31.492Z,67.20
2023-03-16T11:41:02.773Z,68.20
2023-03-16T11:43:32.352Z,67.50
2023-03-16T11:46:17.423Z,67.60
2023-03-16T11:48:53.516Z,69.10
2023-03-16T11:51:20.131Z,68.30
2023-03-16T11:53:49.436Z,71.20
2023-03-16T11:56:20.709Z,71.50
2023-03-16T11:59:02.570Z,70.60
2023-03-16T12:01:30.747Z,71.60
2023-03-16T12:04:02.145Z,74.10
2023-03-16T12:06:38.718Z,72.20
2023-03-16T12:09:14.693Z,73.10
2023-03-16T12:11:44.685Z,74.00
2023-03-16T12:14:11.246Z,75.20
2023-03-16T12:16:50.350Z,74.10
2023-03-16T12:19:28.618Z,72.10
2023-03-16T12:22:01.262Z,70.70
2023-03-16T12:24:32.178Z,71.90
2023-03-16T12:26:59.818Z,70.70
2023-03-16T12:29:35.484Z,71.50
2023-03-16T12:32:08.355Z,73.00
2023-03-16T12:34:38.593Z,71.50
2023-03-16T12:37:36.113Z,72.20
2023-03-16T12:40:08.005Z,73.00
2023-03-16T12:42:53.249Z,70.30
2023-03-16T12:45:38.450Z,73.30
2023-03-16T12:48:07.964Z,72.00
2023-03-16T12:50:34.824Z,69.90
2023-03-16T12:53:01.492Z,71.80
2023-03-16T12:55:34.536Z,73.20
2023-03-16T12:58:02.776Z,74.80
2023-03-16T13:00:34.756Z,72.20
2023-03-16T13:03:02.362Z,72.60
2023-03-16T13:05:34.621Z,72.10
2023-03-16T13:08:11.777Z,72.00
2023-03-16T13:10:38.816Z,72.30
2023-03-16T13:13:11.348Z,74.90
2023-03-16T13:15:39.764Z,74.00
2023-03-16T13:18:06.673Z,72.10
2023-03-16T13:20:34.843Z,73.50
2023-03-16T13:23:28.851Z,73.30
2023-03-16T13:26:03.981Z,73.00
2023-03-16T13:28:36.277Z,73.10
2023-03-16T13:31:04.841Z,73.30
2023-03-16T13:33:33.163Z,73.30
2023-03-16T13:36:00.516Z,73.50
2023-03-16T13:38:28.673Z,74.00
2023-03-16T13:40:56.980Z,74.70
2023-03-16T13:43:32.798Z,73.90
2023-03-16T13:45:59.695Z,71.80
2023-03-16T13:48:26.457Z,71.60
2023-03-16T13:50:54.534Z,72.20
2023-03-16T13:53:24.670Z,71.50
2023-03-16T13:55:52.360Z,71.40
2023-03-16T13:58:22.151Z,72.50
2023-03-16T14:00:48.872Z,73.20
2023-03-16T14:03:20.064Z,73.20
2023-03-16T14:05:47.682Z,74.70
2023-03-16T14:08:23.309Z,75.30
2023-03-16T14:10:50.959Z,73.20
2023-03-16T14:13:25.576Z,75.00
2023-03-16T14:16:01.120Z,75.60
2023-03-16T14:18:32.259Z,74.60
2023-03-16T14:20:58.971Z,74.50
2023-03-16T14:23:28.540Z,75.30
2023-03-16T14:25:55.420Z,75.30
2023-03-16T14:28:27.045Z,75.90
2023-03-16T14:30:55.412Z,76.90
2023-03-16T14:33:29.982Z,75.10
2023-03-16T14:35:57.931Z,75.60
2023-03-16T14:38:36.185Z,75.80
2023-03-16T14:41:04.911Z,74.30
2023-03-16T14:43:36.672Z,73.80
2023-03-16T14:46:05.538Z,75.40
2023-03-16T14:48:32.873Z,74.50
2023-03-16T14:51:01.692Z,73.80
2023-03-16T14:53:28.995Z,73.30
2023-03-16T14:55:56.693Z,73.60
2023-03-16T14:58:23.902Z,73.50
2023-03-16T15:00:53.634Z,73.30
2023-03-16T15:03:22.457Z,74.40
2023-03-16T15:05:50.286Z,71.60
2023-03-16T15:08:26.618Z,71.20
2023-03-16T15:10:54.448Z,71.80
2023-03-16T15:13:46.974Z,71.70
2023-03-16T15:16:14.336Z,72.20
2023-03-16T15:18:42.002Z,70.50
2023-03-16T15:21:29.579Z,71.00
2023-03-16T15:23:58.788Z,70.70
2023-03-16T15:26:27.378Z,72.00
2023-03-16T15:28:55.292Z,71.60
2023-03-16T15:31:22.132Z,72.10
2023-03-16T15:33:49.081Z,72.80
2023-03-16T15:36:16.906Z,70.60
2023-03-16T15:38:45.703Z,70.40
2023-03-16T15:41:12.451Z,70.30
2023-03-16T15:43:39.667Z,71.00
2023-03-16T15:46:06.820Z,71.40
2023-03-16T15:48:33.809Z,71.20
2023-03-16T15:51:02.152Z,71.20
2023-03-16T15:53:35.715Z,72.30
2023-03-16T15:56:04.569Z,71.90
2023-03-16T15:58:32.613Z,71.80
2023-03-16T16:01:00.157Z,72.40
2023-03-16T16:03:27.653Z,72.40
2023-03-16T16:05:54.855Z,72.30
2023-03-16T16:08:21.544Z,73.60
2023-03-16T16:10:49.008Z,73.30
2023-03-16T16:13:18.121Z,73.10
2023-03-16T16:15:45.359Z,73.40
2023-03-16T16:18:26.562Z,74.50
2023-03-16T16:20:53.987Z,74.30
2023-03-16T16:23:21.006Z,74.50
2023-03-16T16:25:48.125Z,74.80
2023-03-16T16:28:16.493Z,73.90
2023-03-16T16:30:43.422Z,74.60
2023-03-16T16:33:25.457Z,74.50
2023-03-16T16:35:53.319Z,74.80
2023-03-16T16:38:20.021Z,74.70
2023-03-16T16:40:47.572Z,74.70
2023-03-16T16:43:26.860Z,74.90
2023-03-16T16:45:53.703Z,75.30
2023-03-16T16:48:40.640Z,75.60
2023-03-16T16:51:15.248Z,75.40
2023-03-16T16:53:42.116Z,75.10
2023-03-16T16:56:16.293Z,75.10
2023-03-16T16:58:43.822Z,75.20
2023-03-16T17:01:15.774Z,75.80
2023-03-16T17:03:42.614Z,76.00
2023-03-16T17:06:15.563Z,76.40
2023-03-16T17:08:45.872Z,76.50
2023-03-16T17:11:18.290Z,76.60
2023-03-16T17:13:46.929Z,76.60
2023-03-16T17:16:16.662Z,77.00
2023-03-16T17:18:44.164Z,77.10
2023-03-16T17:21:12.845Z,77.40
2023-03-16T17:23:39.609Z,77.40
2023-03-16T17:26:17.546Z,77.70
2023-03-16T17:29:11.526Z,78.00
2023-03-16T17:31:39.755Z,78.40
2023-03-16T17:34:16.635Z,78.70
2023-03-16T17:36:43.886Z,79.10
2023-03-16T17:39:17.256Z,80.90
2023-03-16T17:41:44.317Z,80.60
2023-03-16T17:44:12.819Z,80.80
2023-03-16T17:46:40.135Z,81.30
2023-03-16T17:49:13.641Z,81.50
2023-03-16T17:51:40.985Z,82.00
2023-03-16T17:54:07.737Z,82.10
2023-03-16T17:56:34.699Z,82.50
2023-03-16T17:59:06.507Z,82.50
2023-03-16T18:01:34.409Z,82.70
2023-03-16T18:04:01.633Z,83.00
2023-03-16T18:06:29.772Z,83.10
2023-03-16T18:08:57.170Z,83.50
2023-03-16T18:11:35.503Z,84.20
2023-03-16T18:14:04.038Z,84.70
2023-03-16T18:16:31.401Z,85.30
2023-03-16T18:19:05.873Z,85.20
2023-03-16T18:21:33.456Z,85.70
2023-03-16T18:24:00.250Z,85.90
2023-03-16T18:26:27.874Z,86.60
2023-03-16T18:28:55.915Z,88.50
2023-03-16T18:31:25.068Z,88.70
2023-03-16T18:34:02.605Z,89.10
2023-03-16T18:36:30.829Z,89.20
2023-03-16T18:38:58.735Z,88.50
2023-03-16T18:41:29.540Z,89.60
2023-03-16T18:43:57.683Z,89.70
2023-03-16T18:46:24.492Z,90.00
2023-03-16T18:48:52.633Z,89.90
2023-03-16T18:51:20.283Z,90.50
2023-03-16T18:53:47.409Z,90.80
2023-03-16T18:56:24.620Z,90.70
2023-03-16T18:58:52.848Z,90.40
2023-03-16T19:01:30.158Z,90.80
2023-03-16T19:03:58.059Z,90.80
2023-03-16T19:06:29.411Z,91.00
2023-03-16T19:09:17.440Z,91.20
2023-03-16T19:11:44.610Z,91.80
2023-03-16T19:14:22.622Z,91.70
2023-03-16T19:16:49.449Z,92.10
2023-03-16T19:19:17.143Z,92.10
2023-03-16T19:21:43.856Z,92.20
2023-03-16T19:24:19.077Z,92.60
2023-03-16T19:26:46.011Z,92.40
2023-03-16T19:29:14.125Z,92.50
2023-03-16T19:31:41.771Z,92.50
2023-03-16T19:34:15.983Z,92.50
2023-03-16T19:36:42.624Z,92.50
2023-03-16T19:39:12.563Z,92.30
2023-03-16T19:41:39.679Z,92.20
2023-03-16T19:44:17.503Z,92.50
2023-03-16T19:46:44.586Z,92.20
2023-03-16T19:49:40.762Z,92.40
2023-03-16T19:52:10.888Z,92.00
2023-03-16T19:54:39.512Z,92.50
2023-03-16T19:57:14.318Z,92.00
2023-03-16T19:59:42.129Z,92.30
2023-03-16T20:02:27.224Z,91.80
2023-03-16T20:04:54.767Z,91.70
2023-03-16T20:07:21.746Z,91.80
2023-03-16T20:09:48.681Z,91.70
2023-03-16T20:12:18.487Z,91.70
2023-03-16T20:14:45.320Z,92.10
2023-03-16T20:17:15.145Z,91.90
2023-03-16T20:19:41.867Z,92.00
2023-03-16T20:22:17.218Z,92.30
2023-03-16T20:24:44.592Z,92.20
2023-03-16T20:27:12.537Z,92.60
2023-03-16T20:29:39.315Z,92.30
2023-03-16T20:32:08.223Z,92.10
2023-03-16T20:34:34.981Z,91.80
2023-03-16T20:37:01.905Z,91.90
2023-03-16T20:39:28.650Z,92.00
2023-03-16T20:41:55.544Z,92.00
2023-03-16T20:44:25.312Z,92.00
2023-03-16T20:46:52.313Z,92.30
2023-03-16T20:49:21.928Z,92.20
2023-03-16T20:51:49.532Z,92.30
2023-03-16T20:54:16.199Z,92.80
2023-03-16T20:56:43.035Z,93.20
2023-03-16T20:59:16.998Z,93.70
2023-03-16T21:01:45.730Z,93.80
2023-03-16T21:04:27.872Z,94.10
2023-03-16T21:06:55.842Z,94.50
2023-03-16T21:09:22.555Z,94.60
2023-03-16T21:11:49.463Z,94.70
2023-03-16T21:14:17.725Z,95.10
2023-03-16T21:16:44.732Z,95.30
2023-03-16T21:19:16.185Z,95.30
2023-03-16T21:21:42.939Z,95.70
2023-03-16T21:24:09.690Z,95.60
2023-03-16T21:26:37.335Z,95.60
2023-03-16T21:29:06.889Z,95.80
2023-03-16T21:31:33.938Z,95.70
2023-03-16T21:34:00.802Z,95.70
2023-03-16T21:36:27.465Z,96.10
2023-03-16T21:38:55.040Z,96.50
2023-03-16T21:41:21.906Z,96.60
2023-03-16T21:43:49.965Z,96.90
2023-03-16T21:46:21.485Z,97.10
2023-03-16T21:48:52.778Z,97.20
2023-03-16T21:51:20.952Z,97.60
2023-03-16T21:53:48.791Z,97.50
2023-03-16T21:56:17.339Z,97.50
2023-03-16T21:58:44.432Z,97.70
2023-03-16T22:01:20.419Z,97.80
2023-03-16T22:03:50.809Z,97.90
2023-03-16T22:06:18.051Z,98.00
2023-03-16T22:08:44.758Z,98.30
2023-03-16T22:11:16.207Z,98.60
2023-03-16T22:13:42.811Z,98.80
2023-03-16T22:16:13.911Z,98.90
2023-03-16T22:18:40.598Z,98.70
2023-03-16T22:21:18.557Z,99.10
2023-03-16T22:23:45.635Z,99.30
2023-03-16T22:26:15.379Z,99.50
2023-03-16T22:28:42.338Z,99.50
2023-03-16T22:31:13.395Z,99.60
2023-03-16T22:33:40.490Z,99.80
2023-03-16T22:36:09.325Z,99.90
2023-03-16T22:38:36.441Z,99.90
2023-03-16T22:41:03.213Z,99.90
2023-03-16T22:43:31.640Z,99.90
2023-03-16T22:45:59.164Z,99.90
2023-03-16T22:48:27.232Z,99.90
2023-03-16T22:50:54.798Z,99.90
2023-03-16T22:53:48.344Z,99.90
2023-03-16T22:56:15.403Z,99.90
2023-03-16T22:58:43.695Z,99.90
2023-03-16T23:01:19.641Z,99.90
2023-03-16T23:03:47.433Z,99.90
2023-03-16T23:06:18.870Z,99.90
2023-03-16T23:08:45.457Z,99.90
2023-03-16T23:11:32.392Z,99.90
2023-03-16T23:14:00.455Z,99.90
2023-03-16T23:16:29.205Z,99.90
2023-03-16T23:18:56.327Z,99.90
2023-03-16T23:21:24.685Z,99.90
2023-03-16T23:24:03.106Z,99.90
2023-03-16T23:26:31.242Z,99.90
2023-03-16T23:28:58.298Z,99.90
2023-03-16T23:31:26.045Z,99.90
2023-03-16T23:33:52.707Z,99.90
2023-03-16T23:36:20.768Z,99.90
2023-03-16T23:38:48.687Z,99.90
2023-03-16T23:41:17.287Z,99.90
2023-03-16T23:43:44.772Z,99.90
2023-03-16T23:46:12.903Z,99.90
2023-03-16T23:48:41.522Z,99.90
2023-03-16T23:51:12.379Z,99.90
2023-03-16T23:53:40.405Z,99.90
2023-03-16T23:56:09.860Z,99.90
2023-03-16T23:58:36.770Z,99.90
